Time;durP1;ratioP1;P1;durP2;ratioP2;P2;SDS_P1;SDS_P2;PMS_P1;PMS_P2;Temp;Humidity;BMP_temperature;BMP_pressure;BME280_temperature;BME280_humidity;BME280_pressure;Samples;Min_cycle;Max_cycle;Signal;HPM_P1;HPM_P2
2021/10/13 00:01:49;;;;;;;7.43;7.13;;;6.40;99.90;;;;;;5053611;28;20183;-62
2021/10/13 00:04:15;;;;;;;7.50;7.20;;;6.40;99.90;;;;;;5053935;28;20175;-65
2021/10/13 00:06:41;;;;;;;8.37;7.97;;;6.40;99.90;;;;;;5036927;28;20250;-65
2021/10/13 00:09:06;;;;;;;8.87;8.37;;;6.40;99.90;;;;;;5033708;28;20589;-65
2021/10/13 00:11:33;;;;;;;8.60;8.20;;;6.40;99.90;;;;;;5048590;28;20179;-64
2021/10/13 00:14:00;;;;;;;7.60;7.30;;;6.40;99.90;;;;;;5053660;28;20220;-65
2021/10/13 00:16:25;;;;;;;7.93;7.57;;;6.40;99.90;;;;;;5039856;28;20624;-65
2021/10/13 00:18:51;;;;;;;8.33;7.83;;;6.40;99.90;;;;;;5052595;28;20226;-63
2021/10/13 00:21:16;;;;;;;8.20;7.80;;;6.30;99.90;;;;;;5051549;28;20648;-65
2021/10/13 00:23:42;;;;;;;7.67;7.37;;;6.30;99.90;;;;;;5053394;28;20175;-65
2021/10/13 00:26:08;;;;;;;7.53;7.23;;;6.30;99.90;;;;;;5043120;28;20175;-65
2021/10/13 00:28:33;;;;;;;8.10;7.70;;;6.30;99.90;;;;;;5033624;28;20172;-65
2021/10/13 00:30:59;;;;;;;7.93;7.43;;;6.30;99.90;;;;;;5036001;28;20179;-65
2021/10/13 00:33:24;;;;;;;8.13;7.63;;;6.30;99.90;;;;;;5031436;28;20278;-65
2021/10/13 00:35:50;;;;;;;8.40;7.70;;;6.30;99.90;;;;;;5042897;28;20179;-65
2021/10/13 00:38:16;;;;;;;8.17;7.57;;;6.20;99.90;;;;;;5053136;28;20198;-65
2021/10/13 00:40:41;;;;;;;8.83;8.33;;;6.20;99.90;;;;;;5043080;28;20184;-65
2021/10/13 00:43:07;;;;;;;8.30;7.90;;;6.20;99.90;;;;;;5033119;28;20180;-64
2021/10/13 00:45:32;;;;;;;8.07;7.73;;;6.20;99.90;;;;;;5040639;28;20179;-65
2021/10/13 00:47:58;;;;;;;8.20;7.70;;;6.20;99.90;;;;;;5051499;28;20175;-65
2021/10/13 00:50:24;;;;;;;8.03;7.53;;;6.20;99.90;;;;;;5052313;28;20194;-65
2021/10/13 00:52:50;;;;;;;8.33;7.93;;;6.20;99.90;;;;;;5052191;28;20789;-65
2021/10/13 00:55:19;;;;;;;8.20;7.50;;;6.10;99.90;;;;;;5047429;28;20219;-64
2021/10/13 00:57:48;;;;;;;8.70;8.00;;;6.10;99.90;;;;;;5032419;28;20637;-65
2021/10/13 01:00:16;;;;;;;7.93;7.53;;;6.10;99.90;;;;;;5051894;28;20215;-64
2021/10/13 01:02:57;;;;;;;8.13;7.57;;;6.10;99.90;;;;;;5051624;28;20635;-65
2021/10/13 01:05:41;;;;;;;8.10;7.40;;;6.10;99.90;;;;;;5032574;28;20171;-65
2021/10/13 01:08:37;;;;;;;8.30;7.60;;;6.00;99.90;;;;;;5036002;28;20170;-65
2021/10/13 01:11:15;;;;;;;7.20;6.90;;;6.10;99.90;;;;;;5049640;28;20269;-65
2021/10/13 01:14:02;;;;;;;7.90;7.20;;;6.10;99.90;;;;;;5047586;28;20181;-65
2021/10/13 01:16:48;;;;;;;7.23;6.93;;;6.10;99.90;;;;;;5052590;28;20304;-65
2021/10/13 01:19:20;;;;;;;8.43;7.97;;;6.00;99.90;;;;;;5040702;28;20235;-65
2021/10/13 01:22:13;;;;;;;8.10;7.50;;;6.00;99.90;;;;;;5032232;28;20225;-65
2021/10/13 01:25:01;;;;;;;7.80;7.40;;;6.10;99.90;;;;;;5046616;28;20220;-64
2021/10/13 01:27:40;;;;;;;7.80;7.40;;;6.10;99.90;;;;;;5040330;28;20222;-65
2021/10/13 01:30:06;;;;;;;8.33;7.73;;;6.10;99.90;;;;;;5032003;28;20197;-65
2021/10/13 01:32:36;;;;;;;9.83;9.03;;;6.10;99.90;;;;;;5042834;28;20565;-64
2021/10/13 01:35:03;;;;;;;8.73;8.30;;;6.10;99.90;;;;;;5052153;28;20175;-65
2021/10/13 01:37:43;;;;;;;9.73;9.17;;;6.10;99.90;;;;;;5040973;28;20186;-65
2021/10/13 01:40:13;;;;;;;8.10;7.70;;;6.10;99.90;;;;;;5031704;28;20265;-64
2021/10/13 01:42:41;;;;;;;9.53;8.83;;;6.10;99.90;;;;;;5043333;28;20163;-65
2021/10/13 01:45:07;;;;;;;8.93;8.43;;;6.00;99.90;;;;;;5051945;28;20167;-65
2021/10/13 01:47:34;;;;;;;8.30;7.70;;;6.10;99.90;;;;;;5040225;28;20172;-65
2021/10/13 01:50:01;;;;;;;8.73;8.03;;;6.10;99.90;;;;;;5031651;28;20267;-65
2021/10/13 01:52:27;;;;;;;8.80;8.20;;;6.10;99.90;;;;;;5031716;28;20219;-65
2021/10/13 01:54:58;;;;;;;9.47;8.87;;;6.00;99.90;;;;;;5032008;28;20179;-65
2021/10/13 01:57:24;;;;;;;8.60;7.90;;;6.00;99.90;;;;;;5038964;28;20182;-65
2021/10/13 01:59:53;;;;;;;9.03;8.43;;;6.10;99.90;;;;;;5051295;28;20264;-65
2021/10/13 02:02:20;;;;;;;8.73;8.17;;;6.10;99.90;;;;;;5045175;28;20492;-65
2021/10/13 02:04:47;;;;;;;8.63;8.13;;;6.00;99.90;;;;;;5031319;28;20174;-65
2021/10/13 02:07:14;;;;;;;8.77;8.27;;;6.00;99.90;;;;;;5035753;28;20189;-64
2021/10/13 02:09:41;;;;;;;9.77;9.13;;;6.00;99.90;;;;;;5049771;28;20226;-64
2021/10/13 02:12:08;;;;;;;9.13;8.53;;;6.00;99.90;;;;;;5048256;28;20183;-65
2021/10/13 02:14:38;;;;;;;9.07;8.47;;;5.90;99.90;;;;;;5030300;28;20179;-65
2021/10/13 02:17:06;;;;;;;9.67;8.67;;;5.90;99.90;;;;;;5033436;28;20675;-65
2021/10/13 02:19:33;;;;;;;8.97;8.47;;;5.90;99.90;;;;;;5051276;28;20602;-64
2021/10/13 02:22:01;;;;;;;8.27;7.87;;;5.80;99.90;;;;;;5037338;28;20207;-69
2021/10/13 02:24:31;;;;;;;9.17;8.57;;;5.80;99.90;;;;;;5032486;28;20167;-68
2021/10/13 02:27:13;;;;;;;9.20;8.70;;;5.70;99.90;;;;;;5045449;28;20182;-68
2021/10/13 02:29:38;;;;;;;9.47;8.87;;;5.80;99.90;;;;;;5052038;28;20202;-65
2021/10/13 02:32:06;;;;;;;10.70;9.97;;;5.70;99.90;;;;;;5037322;28;20326;-70
2021/10/13 02:34:32;;;;;;;10.97;10.20;;;5.70;99.90;;;;;;5032710;28;20163;-70
2021/10/13 02:36:58;;;;;;;11.27;10.43;;;5.80;99.90;;;;;;5042631;28;20765;-67
2021/10/13 02:39:24;;;;;;;10.20;9.40;;;5.80;99.90;;;;;;5051865;28;20293;-69
2021/10/13 02:41:50;;;;;;;10.23;9.50;;;5.80;99.90;;;;;;5041391;28;20207;-68
2021/10/13 02:44:15;;;;;;;9.70;9.10;;;5.90;99.90;;;;;;5032738;28;20198;-70
2021/10/13 02:46:55;;;;;;;9.03;8.43;;;6.00;99.90;;;;;;5040474;28;20201;-69
2021/10/13 02:49:43;;;;;;;9.83;9.20;;;6.00;99.90;;;;;;5045860;28;20191;-68
2021/10/13 02:52:46;;;;;;;8.57;7.87;;;6.10;99.90;;;;;;5030810;28;20190;-69
2021/10/13 02:55:44;;;;;;;8.87;8.37;;;6.10;99.90;;;;;;5044954;28;20261;-68
2021/10/13 02:58:26;;;;;;;9.20;8.60;;;6.10;99.90;;;;;;5040706;28;20232;-69
2021/10/13 03:00:53;;;;;;;9.40;8.57;;;6.20;99.90;;;;;;5032757;28;20199;-70
2021/10/13 03:03:38;;;;;;;9.60;8.87;;;6.20;99.90;;;;;;5042079;28;20175;-69
2021/10/13 03:06:05;;;;;;;10.70;9.80;;;6.30;99.90;;;;;;5051757;28;20238;-70
2021/10/13 03:08:35;;;;;;;10.53;9.80;;;6.30;99.90;;;;;;5039573;28;20211;-69
2021/10/13 03:11:02;;;;;;;13.83;10.30;;;6.30;99.90;;;;;;5032094;28;20210;-70
2021/10/13 03:13:32;;;;;;;8.80;8.20;;;6.30;99.90;;;;;;5041668;28;20233;-70
2021/10/13 03:16:01;;;;;;;9.47;8.63;;;6.30;99.90;;;;;;5051948;28;20175;-70
2021/10/13 03:18:27;;;;;;;9.13;8.53;;;6.30;99.90;;;;;;5047507;28;20209;-71
2021/10/13 03:20:53;;;;;;;8.97;8.37;;;6.30;99.90;;;;;;5053047;28;20175;-67
2021/10/13 03:23:20;;;;;;;8.83;8.37;;;6.30;99.90;;;;;;5044768;28;20622;-70
2021/10/13 03:25:49;;;;;;;10.00;9.40;;;6.20;99.90;;;;;;5034536;28;20171;-70
2021/10/13 03:28:15;;;;;;;9.03;8.43;;;6.20;99.90;;;;;;5045830;28;20183;-70
2021/10/13 03:30:43;;;;;;;9.43;8.83;;;6.20;99.90;;;;;;5055443;28;20652;-73
2021/10/13 03:33:09;;;;;;;9.00;8.53;;;6.20;99.90;;;;;;5050803;28;20198;-68
2021/10/13 03:35:35;;;;;;;9.30;8.80;;;6.20;99.90;;;;;;5047676;28;20532;-70
2021/10/13 03:38:03;;;;;;;8.73;8.07;;;6.20;99.90;;;;;;5050611;28;20179;-70
2021/10/13 03:40:30;;;;;;;9.10;8.40;;;6.20;99.90;;;;;;5033901;28;20199;-68
2021/10/13 03:42:56;;;;;;;7.83;7.43;;;6.20;99.90;;;;;;5040594;28;20268;-73
2021/10/13 03:45:23;;;;;;;9.53;8.73;;;6.30;99.90;;;;;;5053771;28;20642;-65
2021/10/13 03:47:49;;;;;;;8.17;7.67;;;6.30;99.90;;;;;;5035670;28;20226;-67
2021/10/13 03:50:18;;;;;;;8.90;8.40;;;6.30;99.90;;;;;;5034881;28;20601;-68
2021/10/13 03:52:45;;;;;;;9.07;8.47;;;6.30;99.90;;;;;;5050651;28;20270;-69
2021/10/13 03:55:13;;;;;;;9.40;8.60;;;6.20;99.90;;;;;;5035197;28;20167;-65
2021/10/13 03:57:40;;;;;;;9.87;9.13;;;6.20;99.90;;;;;;5052605;28;20183;-63
2021/10/13 04:00:09;;;;;;;10.10;8.57;;;6.20;99.90;;;;;;5054343;28;20202;-64
2021/10/13 04:02:34;;;;;;;9.87;9.27;;;6.20;99.90;;;;;;5086028;22;20302;-67
2021/10/13 04:05:02;;;;;;;9.17;8.47;;;6.10;99.90;;;;;;5073891;28;20251;-67
2021/10/13 04:07:28;;;;;;;8.80;8.30;;;6.10;99.90;;;;;;5072046;28;20185;-67
2021/10/13 04:09:53;;;;;;;8.87;8.30;;;6.10;99.90;;;;;;5073574;28;20178;-67
2021/10/13 04:12:19;;;;;;;9.47;8.60;;;6.10;99.90;;;;;;5059225;28;20549;-67
2021/10/13 04:14:45;;;;;;;9.33;8.77;;;6.10;99.90;;;;;;5053882;28;20273;-67
2021/10/13 04:17:10;;;;;;;9.13;8.53;;;6.20;99.90;;;;;;5064721;28;20268;-67
2021/10/13 04:19:36;;;;;;;9.73;9.07;;;6.20;99.90;;;;;;5073000;28;20519;-67
2021/10/13 04:22:01;;;;;;;9.33;8.80;;;6.30;99.90;;;;;;5073436;28;20191;-67
2021/10/13 04:24:27;;;;;;;9.33;8.77;;;6.30;99.90;;;;;;5062006;28;20187;-67
2021/10/13 04:26:53;;;;;;;10.30;9.40;;;6.40;99.90;;;;;;5053436;28;20167;-67
2021/10/13 04:29:18;;;;;;;9.90;9.10;;;6.40;99.90;;;;;;5063091;28;20553;-67
2021/10/13 04:31:44;;;;;;;10.07;9.47;;;6.40;99.90;;;;;;5072741;28;20205;-67
2021/10/13 04:34:10;;;;;;;10.13;9.40;;;6.50;99.90;;;;;;5064196;28;20218;-67
2021/10/13 04:36:35;;;;;;;10.93;9.90;;;6.50;99.90;;;;;;5052364;28;20221;-67
2021/10/13 04:39:01;;;;;;;10.87;10.10;;;6.50;99.90;;;;;;5057418;28;20213;-67
2021/10/13 04:41:26;;;;;;;10.30;9.50;;;6.50;99.90;;;;;;5073203;28;20201;-67
2021/10/13 04:43:52;;;;;;;10.03;9.40;;;6.50;99.90;;;;;;5068754;28;20187;-67
2021/10/13 04:46:18;;;;;;;10.37;9.70;;;6.60;99.90;;;;;;5053349;28;20175;-67
2021/10/13 04:48:43;;;;;;;10.30;9.60;;;6.60;99.90;;;;;;5060298;28;20218;-67
2021/10/13 04:51:09;;;;;;;9.60;9.00;;;6.60;99.90;;;;;;5072926;28;20194;-67
2021/10/13 04:53:34;;;;;;;10.23;9.43;;;6.60;99.90;;;;;;5067143;28;20183;-67
2021/10/13 04:56:00;;;;;;;10.60;9.40;;;6.60;99.90;;;;;;5052924;28;20190;-67
2021/10/13 04:58:28;;;;;;;9.80;9.10;;;6.70;99.90;;;;;;5067305;28;20292;-67
2021/10/13 05:00:54;;;;;;;10.30;9.07;;;6.70;99.90;;;;;;5071384;28;20296;-67
2021/10/13 05:03:19;;;;;;;10.90;10.20;;;6.70;99.90;;;;;;5052874;28;20262;-67
2021/10/13 05:05:45;;;;;;;10.17;9.47;;;6.70;99.90;;;;;;5066744;28;20644;-67
2021/10/13 05:08:11;;;;;;;10.30;9.50;;;6.80;99.90;;;;;;5072795;28;20182;-67
2021/10/13 05:10:37;;;;;;;9.47;8.60;;;6.80;99.90;;;;;;5059650;28;20184;-66
2021/10/13 05:13:03;;;;;;;10.10;9.47;;;6.70;99.90;;;;;;5051448;28;20702;-67
2021/10/13 05:15:29;;;;;;;9.83;9.23;;;6.70;99.90;;;;;;5063039;28;20174;-67
2021/10/13 05:17:54;;;;;;;9.67;8.97;;;6.70;99.90;;;;;;5071071;28;20639;-67
2021/10/13 05:20:20;;;;;;;10.77;9.90;;;6.70;99.90;;;;;;5063017;28;20235;-67
2021/10/13 05:22:46;;;;;;;10.60;9.90;;;6.60;99.90;;;;;;5052411;28;20227;-67
2021/10/13 05:25:11;;;;;;;10.93;10.23;;;6.70;99.90;;;;;;5057733;28;20171;-67
2021/10/13 05:27:37;;;;;;;10.50;9.80;;;6.70;99.90;;;;;;5072256;28;20631;-67
2021/10/13 05:30:04;;;;;;;11.13;10.23;;;6.70;99.90;;;;;;5066870;28;20174;-67
2021/10/13 05:32:29;;;;;;;10.13;9.43;;;6.80;99.90;;;;;;5052196;28;20302;-67
2021/10/13 05:34:55;;;;;;;11.83;10.83;;;6.80;99.90;;;;;;5055129;28;20206;-67
2021/10/13 05:37:21;;;;;;;10.27;9.50;;;6.90;99.90;;;;;;5072232;28;20239;-67
2021/10/13 05:39:47;;;;;;;10.07;9.37;;;6.90;99.90;;;;;;5069796;28;20439;-67
2021/10/13 05:42:13;;;;;;;10.57;9.67;;;6.90;99.90;;;;;;5051498;28;20201;-67
2021/10/13 05:44:39;;;;;;;10.40;9.67;;;6.90;99.90;;;;;;5069549;28;20178;-67
2021/10/13 05:47:04;;;;;;;10.10;9.30;;;6.90;99.90;;;;;;5070628;28;20182;-67
2021/10/13 05:49:30;;;;;;;10.60;9.67;;;6.90;99.90;;;;;;5055396;28;20187;-67
2021/10/13 05:51:55;;;;;;;10.63;9.93;;;6.80;99.90;;;;;;5051694;28;20285;-67
2021/10/13 05:54:21;;;;;;;10.47;9.73;;;6.80;99.90;;;;;;5066111;28;20531;-67
2021/10/13 05:56:50;;;;;;;10.27;9.43;;;6.80;99.90;;;;;;5070447;28;20243;-67
2021/10/13 05:59:16;;;;;;;11.07;10.27;;;6.80;99.90;;;;;;5058306;28;20565;-67
2021/10/13 06:01:42;;;;;;;10.70;9.83;;;6.70;99.90;;;;;;5051316;28;20206;-67
2021/10/13 06:04:07;;;;;;;11.07;10.20;;;6.70;99.90;;;;;;5062867;28;20189;-67
2021/10/13 06:06:33;;;;;;;11.20;10.37;;;6.70;99.90;;;;;;5070478;28;20700;-67
2021/10/13 06:08:58;;;;;;;11.23;10.17;;;6.70;99.90;;;;;;5061677;28;20194;-66
2021/10/13 06:11:24;;;;;;;11.67;10.50;;;6.70;99.90;;;;;;5050108;28;20693;-67
2021/10/13 06:13:50;;;;;;;11.17;10.47;;;6.60;99.90;;;;;;5057554;28;20290;-67
2021/10/13 06:16:15;;;;;;;10.77;10.17;;;6.60;99.90;;;;;;5071621;28;20180;-67
2021/10/13 06:18:41;;;;;;;10.77;10.07;;;6.60;99.90;;;;;;5062889;28;20207;-67
2021/10/13 06:21:07;;;;;;;9.53;8.93;;;6.60;99.90;;;;;;5051031;28;20186;-67
2021/10/13 06:23:33;;;;;;;10.80;9.90;;;6.60;99.90;;;;;;5055483;28;20198;-67
2021/10/13 06:25:58;;;;;;;10.57;9.90;;;6.60;99.90;;;;;;5069867;28;20178;-67
2021/10/13 06:28:24;;;;;;;11.37;10.53;;;6.60;99.90;;;;;;5068662;28;20593;-67
2021/10/13 06:30:49;;;;;;;11.57;10.80;;;6.70;99.90;;;;;;5050852;28;20410;-67
2021/10/13 06:33:15;;;;;;;11.93;11.00;;;6.80;99.90;;;;;;5067963;28;20553;-67
2021/10/13 06:35:41;;;;;;;11.47;10.37;;;6.90;99.90;;;;;;5071259;28;20174;-68
2021/10/13 06:38:06;;;;;;;10.53;9.70;;;7.00;99.90;;;;;;5054877;28;20256;-67
2021/10/13 06:40:32;;;;;;;11.10;10.33;;;7.20;99.90;;;;;;5051051;28;20175;-68
2021/10/13 06:43:00;;;;;;;10.87;10.10;;;7.30;99.90;;;;;;5065474;28;20368;-68
2021/10/13 06:45:26;;;;;;;9.83;9.13;;;7.30;99.90;;;;;;5071112;28;20174;-67
2021/10/13 06:47:52;;;;;;;11.33;10.33;;;7.50;99.90;;;;;;5057192;28;20183;-67
2021/10/13 06:50:18;;;;;;;12.93;9.87;;;7.60;99.90;;;;;;5050532;28;20538;-67
2021/10/13 06:52:43;;;;;;;11.90;10.83;;;7.80;99.90;;;;;;5062529;28;20250;-67
2021/10/13 06:55:13;;;;;;;10.83;10.03;;;7.90;99.90;;;;;;5074051;28;20662;-67
2021/10/13 06:57:39;;;;;;;12.47;11.47;;;8.00;99.90;;;;;;5068072;28;20648;-67
2021/10/13 07:00:05;;;;;;;11.63;10.63;;;8.00;99.90;;;;;;5054690;28;20234;-67
2021/10/13 07:02:31;;;;;;;12.30;11.33;;;8.10;99.90;;;;;;5074818;28;20237;-67
2021/10/13 07:04:57;;;;;;;11.23;10.33;;;8.20;99.90;;;;;;5075137;28;20201;-67
2021/10/13 07:07:22;;;;;;;11.03;10.00;;;8.10;99.90;;;;;;5056115;28;20186;-68
2021/10/13 07:09:48;;;;;;;11.77;10.93;;;8.10;99.90;;;;;;5053061;28;20218;-68
2021/10/13 07:12:13;;;;;;;11.13;10.03;;;8.10;99.90;;;;;;5071390;28;20216;-67
2021/10/13 07:14:39;;;;;;;11.10;9.97;;;8.20;99.90;;;;;;5074937;28;20170;-67
2021/10/13 07:17:04;;;;;;;11.00;10.27;;;8.20;99.90;;;;;;5059229;28;20194;-67
2021/10/13 07:19:30;;;;;;;11.93;10.83;;;8.20;99.90;;;;;;5052981;28;20237;-67
2021/10/13 07:21:56;;;;;;;10.83;9.93;;;8.20;99.90;;;;;;5067550;28;20277;-67
2021/10/13 07:24:21;;;;;;;11.07;10.17;;;8.30;99.90;;;;;;5074697;28;20178;-67
2021/10/13 07:26:47;;;;;;;11.47;10.40;;;8.40;99.90;;;;;;5062355;28;20189;-68
2021/10/13 07:29:13;;;;;;;12.40;11.17;;;8.60;99.90;;;;;;5054377;28;20171;-67
2021/10/13 07:31:39;;;;;;;11.73;10.73;;;8.70;99.90;;;;;;5070036;28;20620;-67
2021/10/13 07:34:04;;;;;;;14.83;12.17;;;8.90;99.90;;;;;;5074259;28;20182;-68
2021/10/13 07:36:32;;;;;;;16.97;15.27;;;9.20;99.90;;;;;;5060060;28;20282;-67
2021/10/13 07:38:58;;;;;;;13.33;11.93;;;9.40;99.90;;;;;;5052681;28;20293;-68
2021/10/13 07:41:25;;;;;;;13.93;12.50;;;9.50;99.90;;;;;;5066756;28;20286;-67
2021/10/13 07:43:51;;;;;;;13.13;11.97;;;9.60;99.90;;;;;;5072635;28;20578;-67
2021/10/13 07:46:17;;;;;;;13.23;11.93;;;9.60;99.90;;;;;;5065130;28;20185;-67
2021/10/13 07:48:42;;;;;;;15.03;13.27;;;9.70;99.90;;;;;;5069104;28;20189;-67
2021/10/13 07:51:08;;;;;;;13.70;12.30;;;9.80;99.90;;;;;;5073639;28;20209;-67
2021/10/13 07:53:35;;;;;;;17.47;13.93;;;9.90;99.90;;;;;;5065912;28;20218;-67
2021/10/13 07:56:00;;;;;;;10.87;9.83;;;10.00;99.90;;;;;;5053764;28;20185;-68
2021/10/13 07:58:26;;;;;;;10.93;9.93;;;10.30;99.90;;;;;;5060389;28;20186;-67
2021/10/13 08:00:51;;;;;;;10.90;9.97;;;10.60;99.90;;;;;;5073276;28;20214;-67
2021/10/13 08:03:17;;;;;;;9.10;8.33;;;10.70;99.90;;;;;;5069100;28;20182;-67
2021/10/13 08:05:42;;;;;;;8.90;8.17;;;10.80;99.90;;;;;;5053010;28;20181;-67
2021/10/13 08:08:08;;;;;;;7.90;7.20;;;11.00;99.90;;;;;;5054822;28;20211;-67
2021/10/13 08:10:34;;;;;;;8.00;7.50;;;10.90;99.90;;;;;;5052167;28;20196;-67
2021/10/13 08:12:59;;;;;;;8.80;8.10;;;10.90;99.90;;;;;;5054841;28;20179;-67
2021/10/13 08:15:26;;;;;;;8.40;7.80;;;11.10;99.90;;;;;;5073705;28;20188;-67
2021/10/13 08:17:52;;;;;;;8.47;7.87;;;11.10;99.90;;;;;;5071869;28;20261;-66
2021/10/13 08:20:17;;;;;;;7.87;7.33;;;11.20;99.90;;;;;;5057136;28;20632;-67
2021/10/13 08:22:46;;;;;;;8.80;8.20;;;11.30;99.90;;;;;;5053459;28;20277;-67
2021/10/13 08:25:12;;;;;;;8.80;8.10;;;11.40;99.90;;;;;;5071672;28;20178;-67
2021/10/13 08:27:38;;;;;;;9.20;8.27;;;11.50;99.90;;;;;;5073388;28;20180;-67
2021/10/13 08:30:05;;;;;;;8.90;8.20;;;11.60;99.90;;;;;;5071239;28;20554;-67
2021/10/13 08:32:30;;;;;;;8.50;7.90;;;11.70;99.90;;;;;;5073297;28;20198;-67
2021/10/13 08:34:56;;;;;;;9.43;7.77;;;11.90;99.90;;;;;;5057879;28;20185;-67
2021/10/13 08:37:21;;;;;;;7.47;7.07;;;11.90;99.90;;;;;;5053342;28;20179;-67
2021/10/13 08:39:47;;;;;;;8.40;7.80;;;11.60;99.90;;;;;;5067284;28;20209;-67
2021/10/13 08:42:13;;;;;;;9.43;8.63;;;11.60;99.90;;;;;;5071710;28;20190;-67
2021/10/13 08:44:43;;;;;;;7.63;7.13;;;11.70;99.90;;;;;;5055865;28;20266;-67
2021/10/13 08:47:11;;;;;;;8.37;7.67;;;11.80;99.90;;;;;;5055256;28;20190;-67
2021/10/13 08:49:39;;;;;;;7.93;7.20;;;11.90;99.90;;;;;;5072679;28;20181;-67
2021/10/13 08:52:10;;;;;;;7.60;7.10;;;11.90;99.90;;;;;;5070891;28;20690;-67
2021/10/13 08:54:35;;;;;;;7.33;6.90;;;11.90;99.90;;;;;;5052911;28;20709;-68
2021/10/13 08:57:14;;;;;;;7.37;6.73;;;11.90;99.90;;;;;;5053132;28;20179;-67
2021/10/13 08:59:43;;;;;;;7.20;6.70;;;12.10;99.90;;;;;;5063220;28;20870;-67
2021/10/13 09:02:11;;;;;;;6.53;6.00;;;12.50;99.90;;;;;;5066782;28;20709;-67
2021/10/13 09:04:37;;;;;;;6.80;6.40;;;12.80;99.90;;;;;;5053629;28;20179;-67
2021/10/13 09:07:04;;;;;;;6.73;6.23;;;13.10;99.90;;;;;;5068635;28;20565;-67
2021/10/13 09:09:31;;;;;;;6.80;6.40;;;13.00;99.90;;;;;;5072294;28;20206;-67
2021/10/13 09:11:57;;;;;;;7.07;6.57;;;13.10;99.90;;;;;;5053001;28;20735;-67
2021/10/13 09:14:29;;;;;;;6.97;6.57;;;13.30;99.90;;;;;;5051791;28;20171;-68
2021/10/13 09:17:07;;;;;;;7.10;6.67;;;13.50;99.90;;;;;;5065978;28;20236;-67
2021/10/13 09:19:59;;;;;;;7.13;6.73;;;13.70;99.90;;;;;;5071881;28;20374;-68
2021/10/13 09:22:24;;;;;;;7.27;6.87;;;13.80;99.90;;;;;;5050571;28;20219;-68
2021/10/13 09:24:52;;;;;;;6.57;6.10;;;13.80;99.90;;;;;;5051962;28;20185;-67
2021/10/13 09:27:30;;;;;;;6.50;6.10;;;14.10;99.90;;;;;;5068804;28;20178;-68
2021/10/13 09:30:02;;;;;;;6.40;6.00;;;14.40;99.90;;;;;;5070126;28;20174;-67
2021/10/13 09:32:28;;;;;;;6.40;6.00;;;14.80;99.90;;;;;;5055994;28;20195;-67
2021/10/13 09:34:57;;;;;;;6.47;5.97;;;15.10;99.90;;;;;;5051548;28;20240;-68
2021/10/13 09:37:24;;;;;;;6.70;6.20;;;15.10;99.90;;;;;;5068256;28;20182;-67
2021/10/13 09:40:04;;;;;;;6.03;5.63;;;15.20;99.90;;;;;;5071241;28;20205;-68
2021/10/13 09:42:39;;;;;;;6.23;5.83;;;15.60;99.90;;;;;;5054713;28;20700;-67
2021/10/13 09:45:09;;;;;;;5.50;5.20;;;15.80;99.90;;;;;;5063714;28;20536;-68
2021/10/13 09:47:36;;;;;;;6.07;5.53;;;16.00;99.90;;;;;;5071805;28;20174;-67
2021/10/13 09:50:14;;;;;;;6.00;5.50;;;16.30;99.90;;;;;;5058375;28;20182;-65
2021/10/13 09:52:41;;;;;;;5.87;5.53;;;16.60;99.90;;;;;;5050329;28;20218;-65
2021/10/13 09:55:11;;;;;;;5.67;5.37;;;16.80;99.90;;;;;;5063531;28;20240;-65
2021/10/13 09:57:42;;;;;;;5.50;5.10;;;17.20;99.90;;;;;;5071691;28;20174;-65
2021/10/13 10:00:16;;;;;;;5.50;5.13;;;17.50;99.90;;;;;;5058349;28;20222;-65
2021/10/13 10:02:41;;;;;;;5.10;4.80;;;17.30;99.90;;;;;;5051956;28;20295;-69
2021/10/13 10:05:11;;;;;;;5.33;4.80;;;17.50;99.90;;;;;;5052544;28;20600;-68
2021/10/13 10:07:46;;;;;;;5.70;5.30;;;17.80;99.90;;;;;;5051661;28;20179;-65
2021/10/13 10:10:15;;;;;;;5.07;4.77;;;18.00;99.90;;;;;;5062827;28;20292;-66
2021/10/13 10:13:03;;;;;;;5.00;4.67;;;17.70;99.90;;;;;;5063131;28;20203;-65
2021/10/13 10:15:41;;;;;;;5.23;4.93;;;17.40;99.90;;;;;;5051420;28;20186;-66
2021/10/13 10:18:24;;;;;;;5.43;5.03;;;17.60;99.90;;;;;;5061911;28;20196;-65
2021/10/13 10:20:51;;;;;;;5.10;4.80;;;17.70;99.90;;;;;;5070714;28;20684;-68
2021/10/13 10:23:35;;;;;;;4.90;4.70;;;17.90;99.90;;;;;;5059398;28;20225;-65
2021/10/13 10:26:26;;;;;;;5.30;4.90;;;17.90;99.90;;;;;;5050811;28;20608;-64
2021/10/13 10:28:55;;;;;;;5.80;5.30;;;17.70;99.90;;;;;;5066565;28;20545;-66
2021/10/13 10:31:29;;;;;;;5.40;4.90;;;17.70;99.90;;;;;;5070919;28;20733;-66
2021/10/13 10:34:10;;;;;;;5.00;4.60;;;17.40;99.90;;;;;;5053404;28;20186;-64
2021/10/13 10:36:37;;;;;;;5.07;4.70;;;17.40;99.90;;;;;;5051896;28;20175;-66
2021/10/13 10:39:04;;;;;;;5.00;4.60;;;17.50;99.90;;;;;;5070843;28;20221;-66
2021/10/13 10:41:53;;;;;;;5.20;4.80;;;17.50;99.90;;;;;;5058274;28;20202;-66
2021/10/13 10:44:31;;;;;;;5.20;4.90;;;17.70;99.90;;;;;;5050164;28;20599;-67
2021/10/13 10:47:04;;;;;;;5.00;4.50;;;18.40;99.90;;;;;;5066195;28;20208;-66
2021/10/13 10:49:55;;;;;;;4.90;4.70;;;18.20;99.90;;;;;;5071021;28;20264;-66
2021/10/13 10:52:23;;;;;;;4.90;4.60;;;18.00;99.90;;;;;;5052319;28;20203;-66
2021/10/13 10:54:53;;;;;;;4.90;4.60;;;18.10;99.90;;;;;;5050495;28;20187;-66
2021/10/13 10:57:46;;;;;;;5.03;4.67;;;18.30;99.90;;;;;;5066375;28;20186;-66
2021/10/13 11:00:24;;;;;;;4.83;4.53;;;18.60;99.90;;;;;;5060317;28;20210;-65
2021/10/13 11:02:50;;;;;;;5.30;5.00;;;19.10;99.90;;;;;;5049728;28;20218;-67
2021/10/13 11:05:20;;;;;;;5.10;4.80;;;19.20;99.90;;;;;;5059961;28;20189;-65
2021/10/13 11:07:48;;;;;;;4.90;4.70;;;18.90;99.90;;;;;;5070853;28;20180;-66
2021/10/13 11:10:14;;;;;;;4.90;4.60;;;18.50;99.90;;;;;;5054330;28;20644;-67
2021/10/13 11:12:55;;;;;;;4.90;4.60;;;18.00;99.90;;;;;;5050983;28;20199;-66
2021/10/13 11:15:22;;;;;;;5.57;5.27;;;17.70;99.90;;;;;;5066634;28;20186;-66
2021/10/13 11:17:48;;;;;;;5.03;4.60;;;17.10;99.90;;;;;;5070777;28;20174;-66
2021/10/13 11:20:19;;;;;;;5.87;5.33;;;16.30;99.90;;;;;;5053882;28;20324;-67
2021/10/13 11:22:54;;;;;;;5.73;5.33;;;16.00;99.90;;;;;;5050498;28;20215;-68
2021/10/13 11:25:22;;;;;;;5.70;5.30;;;15.10;99.90;;;;;;5065806;28;20264;-67
2021/10/13 11:28:02;;;;;;;7.80;5.40;;;14.10;99.90;;;;;;5069132;28;20178;-67
2021/10/13 11:30:35;;;;;;;6.30;5.90;;;13.80;99.90;;;;;;5052047;28;20202;-67
2021/10/13 11:33:07;;;;;;;7.57;5.97;;;13.50;99.90;;;;;;5050474;28;20174;-67
2021/10/13 11:35:33;;;;;;;5.53;5.23;;;13.30;99.90;;;;;;5066068;28;20193;-66
2021/10/13 11:37:59;;;;;;;5.80;5.50;;;12.90;99.90;;;;;;5058793;28;20183;-66
2021/10/13 11:40:26;;;;;;;5.67;5.20;;;12.80;99.90;;;;;;5050152;28;20251;-68
2021/10/13 11:42:58;;;;;;;5.20;5.00;;;12.90;99.90;;;;;;5063495;28;20178;-67
2021/10/13 11:45:24;;;;;;;5.20;5.00;;;12.80;99.90;;;;;;5072015;28;20166;-67
2021/10/13 11:47:50;;;;;;;5.13;4.93;;;12.70;99.90;;;;;;5068329;28;20185;-67
2021/10/13 11:50:17;;;;;;;5.30;5.10;;;12.80;99.90;;;;;;5065071;28;20178;-67
2021/10/13 11:52:53;;;;;;;6.00;5.70;;;12.90;99.90;;;;;;5072721;28;20260;-66
2021/10/13 11:55:20;;;;;;;5.67;5.37;;;13.10;99.90;;;;;;5066113;28;20174;-67
2021/10/13 11:57:57;;;;;;;6.43;6.03;;;13.20;99.90;;;;;;5063339;28;20182;-65
2021/10/13 12:00:28;;;;;;;6.00;5.53;;;13.50;99.90;;;;;;5065622;28;20556;-67
2021/10/13 12:03:12;;;;;;;6.37;5.97;;;14.00;99.90;;;;;;5053514;28;20693;-67
2021/10/13 12:05:40;;;;;;;5.47;5.17;;;14.60;99.90;;;;;;5062828;28;20235;-67
2021/10/13 12:08:10;;;;;;;6.10;5.50;;;15.00;99.90;;;;;;5073470;28;20177;-67
2021/10/13 12:10:43;;;;;;;5.40;5.10;;;15.40;99.90;;;;;;5064676;28;20179;-67
2021/10/13 12:13:15;;;;;;;5.50;5.17;;;15.50;99.90;;;;;;5056067;28;20262;-67
2021/10/13 12:15:43;;;;;;;5.33;5.03;;;15.70;99.90;;;;;;5072279;28;20174;-68
2021/10/13 12:18:21;;;;;;;5.93;5.63;;;16.10;99.90;;;;;;5069146;28;20212;-67
2021/10/13 12:21:08;;;;;;;4.93;4.73;;;15.80;99.90;;;;;;5051309;28;20675;-68
2021/10/13 12:23:48;;;;;;;5.30;5.00;;;15.00;99.90;;;;;;5058590;28;20607;-68
2021/10/13 12:26:28;;;;;;;6.23;5.73;;;14.40;99.90;;;;;;5073153;28;20506;-67
2021/10/13 12:28:57;;;;;;;5.40;5.20;;;14.20;99.90;;;;;;5065445;28;20190;-67
2021/10/13 12:31:30;;;;;;;5.70;5.40;;;14.30;99.90;;;;;;5052979;28;20619;-67
2021/10/13 12:34:01;;;;;;;6.13;5.77;;;14.20;99.90;;;;;;5054236;28;20174;-67
2021/10/13 12:36:30;;;;;;;6.20;5.83;;;14.80;99.90;;;;;;5053108;28;20170;-68
2021/10/13 12:38:59;;;;;;;5.00;4.80;;;15.10;99.90;;;;;;5061134;28;20288;-68
2021/10/13 12:41:32;;;;;;;5.37;5.07;;;15.40;99.90;;;;;;5072602;28;20667;-66
2021/10/13 12:43:58;;;;;;;5.73;5.40;;;15.70;99.90;;;;;;5070073;28;20186;-68
2021/10/13 12:46:30;;;;;;;5.20;4.90;;;15.80;99.90;;;;;;5072169;28;20261;-67
2021/10/13 12:48:57;;;;;;;5.20;5.00;;;15.90;99.90;;;;;;5063835;28;20186;-68
2021/10/13 12:51:23;;;;;;;4.87;4.60;;;16.10;99.90;;;;;;5052532;28;20668;-66
2021/10/13 12:53:50;;;;;;;4.70;4.47;;;16.50;99.90;;;;;;5058144;28;20224;-67
2021/10/13 12:56:16;;;;;;;5.60;5.20;;;16.70;99.90;;;;;;5071448;28;20178;-67
2021/10/13 12:58:45;;;;;;;5.43;5.03;;;16.40;99.90;;;;;;5062862;28;20252;-68